createdAt,value
2023-05-18T00:01:19.589Z,94615.31
2023-05-18T00:03:47.777Z,94613.28
2023-05-18T00:06:16.442Z,94594.06
2023-05-18T00:08:44.361Z,94627.50
2023-05-18T00:11:12.564Z,94579.53
2023-05-18T00:13:40.537Z,94592.50
2023-05-18T00:16:12.221Z,94521.66
2023-05-18T00:18:40.404Z,94623.00
2023-05-18T00:21:09.327Z,94616.53
2023-05-18T00:23:39.754Z,94590.88
2023-05-18T00:26:07.809Z,94603.66
2023-05-18T00:28:35.802Z,94616.22
2023-05-18T00:31:03.999Z,94631.03
2023-05-18T00:33:34.060Z,94620.97
2023-05-18T00:36:01.974Z,94615.25
2023-05-18T00:38:29.922Z,94620.28
2023-05-18T00:40:57.899Z,94596.28
2023-05-18T00:43:25.893Z,94621.25
2023-05-18T00:45:53.852Z,94621.78
2023-05-18T00:48:21.872Z,94494.19
2023-05-18T00:50:51.545Z,94609.69
2023-05-18T00:53:19.486Z,94541.78
2023-05-18T00:55:47.500Z,94608.03
2023-05-18T00:58:15.541Z,94613.13
2023-05-18T01:00:43.557Z,94610.41
2023-05-18T01:03:12.270Z,94609.38
2023-05-18T01:05:41.121Z,94607.91
2023-05-18T01:08:10.545Z,94610.72
2023-05-18T01:10:41.186Z,94588.59
2023-05-18T01:13:14.162Z,94552.22
2023-05-18T01:15:43.209Z,94617.09
2023-05-18T01:18:16.475Z,94550.34
2023-05-18T01:20:48.459Z,94627.00
2023-05-18T01:23:48.980Z,94624.28
2023-05-18T01:26:24.870Z,94592.50
2023-05-18T01:28:53.419Z,94634.19
2023-05-18T01:31:21.617Z,94636.31
2023-05-18T01:33:49.744Z,94628.66
2023-05-18T01:36:17.753Z,94622.66
2023-05-18T01:38:46.600Z,94611.09
2023-05-18T01:41:20.509Z,94618.50
2023-05-18T01:43:54.837Z,94613.59
2023-05-18T01:46:31.133Z,94612.50
2023-05-18T01:49:11.560Z,94617.72
2023-05-18T01:51:45.634Z,94597.94
2023-05-18T01:54:17.147Z,94625.38
2023-05-18T01:56:48.431Z,94637.41
2023-05-18T01:59:17.208Z,94629.56
2023-05-18T02:01:45.395Z,94637.41
2023-05-18T02:04:13.590Z,94639.19
2023-05-18T02:06:41.630Z,94629.00
2023-05-18T02:09:09.759Z,94634.84
2023-05-18T02:11:37.819Z,94641.16
2023-05-18T02:14:07.164Z,94586.19
2023-05-18T02:16:35.188Z,94633.69
2023-05-18T02:19:03.560Z,94563.31
2023-05-18T02:21:31.962Z,94632.69
2023-05-18T02:24:00.167Z,94598.88
2023-05-18T02:26:28.241Z,94632.19
2023-05-18T02:28:56.263Z,94636.78
2023-05-18T02:31:27.586Z,94630.91
2023-05-18T02:33:56.177Z,94624.22
2023-05-18T02:36:24.103Z,94630.03
2023-05-18T02:38:52.082Z,94557.00
2023-05-18T02:41:20.156Z,94634.25
2023-05-18T02:43:48.194Z,94635.38
2023-05-18T02:46:16.386Z,94578.53
2023-05-18T02:48:45.910Z,94649.44
2023-05-18T02:51:14.106Z,94648.28
2023-05-18T02:53:44.311Z,94649.25
2023-05-18T02:56:12.613Z,94658.97
2023-05-18T02:58:43.757Z,94659.94
2023-05-18T03:01:13.446Z,94674.31
2023-05-18T03:03:42.554Z,94674.06
2023-05-18T03:06:14.151Z,94684.78
2023-05-18T03:08:42.660Z,94645.69
2023-05-18T03:11:11.165Z,94687.06
2023-05-18T03:13:39.274Z,94694.06
2023-05-18T03:16:07.339Z,94694.94
2023-05-18T03:18:35.372Z,94696.41
2023-05-18T03:21:03.521Z,94709.72
2023-05-18T03:23:33.127Z,94708.75
2023-05-18T03:26:04.107Z,94651.59
2023-05-18T03:28:32.243Z,94699.41
2023-05-18T03:31:00.228Z,94701.28
2023-05-18T03:33:28.375Z,94697.78
2023-05-18T03:35:56.389Z,94699.41
2023-05-18T03:38:24.383Z,94678.25
2023-05-18T03:40:53.719Z,94710.81
2023-05-18T03:43:21.730Z,94705.56
2023-05-18T03:45:49.670Z,94645.09
2023-05-18T03:48:17.690Z,94708.88
2023-05-18T03:50:45.938Z,94708.72
2023-05-18T03:53:14.041Z,94708.31
2023-05-18T03:55:42.038Z,94707.31
2023-05-18T03:58:11.441Z,94706.06
2023-05-18T04:00:39.976Z,94694.53
2023-05-18T04:03:07.970Z,94716.97
2023-05-18T04:05:36.006Z,94664.78
2023-05-18T04:08:04.075Z,94707.56
2023-05-18T04:10:32.499Z,94738.28
2023-05-18T04:13:00.927Z,94723.38
2023-05-18T04:15:30.446Z,94737.50
2023-05-18T04:17:59.833Z,94737.50
2023-05-18T04:20:28.600Z,94694.97
2023-05-18T04:22:57.519Z,94734.84
2023-05-18T04:25:28.228Z,94727.09
2023-05-18T04:27:57.230Z,94722.59
2023-05-18T04:30:27.563Z,94705.31
2023-05-18T04:32:58.452Z,94647.31
2023-05-18T04:35:27.124Z,94731.25
2023-05-18T04:37:55.389Z,94722.91
2023-05-18T04:40:25.494Z,94729.63
2023-05-18T04:42:53.583Z,94733.69
2023-05-18T04:45:22.928Z,94653.84
2023-05-18T04:47:54.341Z,94738.16
2023-05-18T04:50:24.813Z,94744.13
2023-05-18T04:52:53.970Z,94734.72
2023-05-18T04:55:26.493Z,94743.50
2023-05-18T04:57:57.056Z,94750.63
2023-05-18T05:00:26.122Z,94754.84
2023-05-18T05:02:54.873Z,94756.59
2023-05-18T05:05:24.815Z,94751.22
2023-05-18T05:07:52.933Z,94711.06
2023-05-18T05:10:21.241Z,94737.66
2023-05-18T05:12:50.602Z,94767.31
2023-05-18T05:15:19.382Z,94730.91
2023-05-18T05:17:48.179Z,94771.66
2023-05-18T05:20:16.444Z,94764.38
2023-05-18T05:22:45.988Z,94772.50
2023-05-18T05:25:14.145Z,94770.47
2023-05-18T05:27:42.119Z,94772.50
2023-05-18T05:30:10.855Z,94783.38
2023-05-18T05:32:39.212Z,94783.78
2023-05-18T05:35:08.180Z,94789.19
2023-05-18T05:37:36.387Z,94791.97
2023-05-18T05:40:06.853Z,94793.47
2023-05-18T05:42:35.126Z,94798.25
2023-05-18T05:45:03.096Z,94744.09
2023-05-18T05:47:31.167Z,94756.09
2023-05-18T05:49:59.171Z,94790.91
2023-05-18T05:52:28.940Z,94799.44
2023-05-18T05:54:57.466Z,94771.50
2023-05-18T05:57:26.958Z,94774.53
2023-05-18T05:59:54.912Z,94800.84
2023-05-18T06:02:23.020Z,94799.25
2023-05-18T06:04:51.174Z,94805.19
2023-05-18T06:07:19.225Z,94801.47
2023-05-18T06:09:47.333Z,94808.03
2023-05-18T06:12:15.305Z,94794.25
2023-05-18T06:14:45.060Z,94774.31
2023-05-18T06:17:13.067Z,94719.41
2023-05-18T06:19:41.219Z,94822.22
2023-05-18T06:22:09.221Z,94826.34
2023-05-18T06:24:37.199Z,94837.56
2023-05-18T06:27:05.730Z,94791.56
2023-05-18T06:29:33.658Z,94839.28
2023-05-18T06:32:03.266Z,94845.28
2023-05-18T06:34:31.419Z,94841.91
2023-05-18T06:37:00.232Z,94833.69
2023-05-18T06:39:28.668Z,94839.59
2023-05-18T06:41:56.643Z,94771.69
2023-05-18T06:44:24.940Z,94772.06
2023-05-18T06:46:53.038Z,94770.47
2023-05-18T06:49:22.572Z,94842.41
2023-05-18T06:51:50.812Z,94837.97
2023-05-18T06:54:18.897Z,94837.63
2023-05-18T06:56:47.538Z,94820.56
2023-05-18T06:59:15.924Z,94845.56
2023-05-18T07:01:44.251Z,94752.91
2023-05-18T07:04:12.744Z,94839.53
2023-05-18T07:06:42.160Z,94841.41
2023-05-18T07:09:10.291Z,94811.25
2023-05-18T07:11:40.441Z,94856.59
2023-05-18T07:14:08.478Z,94708.00
2023-05-18T07:16:36.871Z,94852.75
2023-05-18T07:19:07.742Z,94765.91
2023-05-18T07:21:37.071Z,94858.97
2023-05-18T07:24:08.161Z,94858.16
2023-05-18T07:26:36.177Z,94850.94
2023-05-18T07:29:04.241Z,94868.91
2023-05-18T07:31:33.517Z,94861.97
2023-05-18T07:34:04.053Z,94863.47
2023-05-18T07:36:32.228Z,94867.06
2023-05-18T07:39:01.380Z,94848.09
2023-05-18T07:41:31.460Z,94865.19
2023-05-18T07:43:59.436Z,94881.38
2023-05-18T07:46:27.397Z,94879.75
2023-05-18T07:48:55.629Z,94887.66
2023-05-18T07:51:23.826Z,94883.69
2023-05-18T07:53:51.890Z,94896.97
2023-05-18T07:56:19.992Z,94899.91
2023-05-18T07:58:49.418Z,94894.00
2023-05-18T08:01:17.633Z,94911.53
2023-05-18T08:03:45.875Z,94904.09
2023-05-18T08:06:13.860Z,94895.59
2023-05-18T08:08:41.833Z,94781.91
2023-05-18T08:11:10.268Z,94924.75
2023-05-18T08:13:38.329Z,94888.38
2023-05-18T08:16:12.175Z,94917.16
2023-05-18T08:18:41.161Z,94848.78
2023-05-18T08:21:10.292Z,94926.97
2023-05-18T08:23:38.591Z,94908.97
2023-05-18T08:26:08.457Z,94937.75
2023-05-18T08:28:36.521Z,94940.84
2023-05-18T08:31:04.596Z,94937.72
2023-05-18T08:33:33.979Z,94913.41
2023-05-18T08:36:02.116Z,94944.22
2023-05-18T08:38:30.293Z,94949.44
2023-05-18T08:41:07.310Z,94948.69
2023-05-18T08:43:39.521Z,94955.06
2023-05-18T08:46:14.882Z,94961.25
2023-05-18T08:48:47.395Z,94968.19
2023-05-18T08:51:21.490Z,94967.25
2023-05-18T08:53:54.885Z,94964.16
2023-05-18T08:56:25.483Z,94981.88
2023-05-18T08:58:57.789Z,94974.38
2023-05-18T09:01:29.369Z,94969.31
2023-05-18T09:04:00.594Z,94939.38
2023-05-18T09:06:30.638Z,94973.84
2023-05-18T09:08:59.061Z,94984.03
2023-05-18T09:11:28.442Z,94986.75
2023-05-18T09:13:56.667Z,94979.84
2023-05-18T09:16:24.894Z,94991.28
2023-05-18T09:18:53.156Z,94982.47
2023-05-18T09:21:26.015Z,94987.25
2023-05-18T09:23:54.349Z,94983.25
2023-05-18T09:26:23.015Z,94976.47
2023-05-18T09:28:54.075Z,94918.19
2023-05-18T09:31:24.816Z,94975.56
2023-05-18T09:33:54.209Z,94992.63
2023-05-18T09:36:29.291Z,94986.34
2023-05-18T09:39:04.957Z,94944.06
2023-05-18T09:41:33.216Z,94962.53
2023-05-18T09:44:05.270Z,94991.47
2023-05-18T09:46:33.911Z,95011.00
2023-05-18T09:49:01.965Z,94999.75
2023-05-18T09:51:31.763Z,95006.03
2023-05-18T09:54:00.675Z,94923.47
2023-05-18T09:56:28.791Z,95008.72
2023-05-18T09:58:56.820Z,95005.06
2023-05-18T10:01:24.957Z,94997.50
2023-05-18T10:03:53.491Z,95006.59
2023-05-18T10:06:22.708Z,95014.19
2023-05-18T10:08:52.311Z,94891.28
2023-05-18T10:11:21.904Z,95015.69
2023-05-18T10:13:56.471Z,95011.94
2023-05-18T10:16:25.342Z,95023.09
2023-05-18T10:18:55.868Z,94990.94
2023-05-18T10:21:29.417Z,94933.00
2023-05-18T10:24:01.280Z,94964.13
2023-05-18T10:26:29.952Z,95033.31
2023-05-18T10:29:00.431Z,94980.34
2023-05-18T10:31:31.459Z,95020.75
2023-05-18T10:34:01.687Z,95037.47
2023-05-18T10:36:32.915Z,95028.53
2023-05-18T10:39:04.165Z,94950.25
2023-05-18T10:41:33.813Z,94836.25
2023-05-18T10:44:04.352Z,95044.78
2023-05-18T10:46:33.354Z,95008.63
2023-05-18T10:49:05.024Z,95049.81
2023-05-18T10:51:33.632Z,95055.06
2023-05-18T10:54:14.591Z,95058.88
2023-05-18T10:56:45.756Z,95042.78
2023-05-18T10:59:15.301Z,95060.53
2023-05-18T11:01:44.697Z,95060.81
2023-05-18T11:04:13.048Z,95032.13
2023-05-18T11:06:41.516Z,95073.41
2023-05-18T11:09:24.169Z,95069.97
2023-05-18T11:11:53.233Z,95075.66
2023-05-18T11:14:27.716Z,95054.34
2023-05-18T11:16:56.088Z,95087.94
2023-05-18T11:19:27.599Z,95003.13
2023-05-18T11:21:55.697Z,95081.00
2023-05-18T11:24:26.380Z,95112.31
2023-05-18T11:26:55.823Z,95102.25
2023-05-18T11:29:25.883Z,95103.97
2023-05-18T11:31:56.113Z,95106.25
2023-05-18T11:34:45.327Z,95107.69
2023-05-18T11:37:15.170Z,95098.94
2023-05-18T11:40:00.198Z,95112.41
2023-05-18T11:42:35.064Z,95048.19
2023-05-18T11:45:08.272Z,94983.19
2023-05-18T11:47:37.987Z,95064.72
2023-05-18T11:50:08.903Z,95101.59
2023-05-18T11:52:47.560Z,95096.34
2023-05-18T11:55:19.290Z,95101.91
2023-05-18T11:57:52.565Z,95103.34
2023-05-18T12:00:22.017Z,95101.03
2023-05-18T12:02:50.469Z,95107.09
2023-05-18T12:05:18.898Z,95102.16
2023-05-18T12:07:53.708Z,95103.16
2023-05-18T12:10:25.338Z,95117.81
2023-05-18T12:12:54.293Z,95106.09
2023-05-18T12:15:24.036Z,95109.81
2023-05-18T12:17:52.927Z,95112.34
2023-05-18T12:20:22.573Z,95117.34
2023-05-18T12:22:53.395Z,95119.78
2023-05-18T12:25:24.437Z,95108.81
2023-05-18T12:27:54.742Z,95123.16
2023-05-18T12:30:25.762Z,95119.47
2023-05-18T12:32:55.682Z,95082.69
2023-05-18T12:35:24.742Z,95124.84
2023-05-18T12:37:55.641Z,95073.78
2023-05-18T12:40:25.349Z,95099.09
2023-05-18T12:42:54.519Z,95121.09
2023-05-18T12:45:24.526Z,95133.53
2023-05-18T12:47:55.453Z,95133.13
2023-05-18T12:50:25.161Z,95137.56
2023-05-18T12:52:53.793Z,95142.38
2023-05-18T12:55:23.016Z,95135.84
2023-05-18T12:58:02.219Z,95122.13
2023-05-18T13:00:33.939Z,95115.25
2023-05-18T13:03:11.649Z,95154.72
2023-05-18T13:05:42.669Z,95154.69
2023-05-18T13:08:14.892Z,95159.41
2023-05-18T13:10:45.605Z,95166.75
2023-05-18T13:13:16.392Z,95130.91
2023-05-18T13:15:45.645Z,95146.59
2023-05-18T13:18:14.291Z,95170.06
2023-05-18T13:20:44.746Z,95160.56
2023-05-18T13:23:14.932Z,95161.25
2023-05-18T13:25:44.286Z,95156.25
2023-05-18T13:28:13.791Z,95165.66
2023-05-18T13:30:44.240Z,95134.63
2023-05-18T13:33:13.387Z,95160.50
2023-05-18T13:35:42.911Z,95159.91
2023-05-18T13:38:11.237Z,95162.22
2023-05-18T13:40:39.729Z,95179.81
2023-05-18T13:43:08.231Z,95157.72
2023-05-18T13:45:37.424Z,95017.03
2023-05-18T13:48:10.071Z,95167.72
2023-05-18T13:50:39.219Z,95162.75
2023-05-18T13:53:07.584Z,95162.09
2023-05-18T13:55:35.896Z,95156.94
2023-05-18T13:58:04.141Z,95161.44
2023-05-18T14:00:33.670Z,95162.84
2023-05-18T14:03:03.003Z,95017.47
2023-05-18T14:05:32.507Z,95157.81
2023-05-18T14:08:01.682Z,95162.22
2023-05-18T14:10:29.989Z,94843.78
2023-05-18T14:12:58.280Z,95028.22
2023-05-18T14:15:26.345Z,95075.50
2023-05-18T14:17:54.467Z,95163.47
2023-05-18T14:20:22.627Z,95157.13
2023-05-18T14:22:51.996Z,95123.03
2023-05-18T14:25:20.284Z,95084.69
2023-05-18T14:27:48.241Z,95170.59
2023-05-18T14:30:16.265Z,95168.56
2023-05-18T14:32:44.253Z,95162.03
2023-05-18T14:35:12.765Z,95163.13
2023-05-18T14:37:41.132Z,95169.59
2023-05-18T14:40:12.147Z,95105.53
2023-05-18T14:42:40.129Z,95168.97
2023-05-18T14:45:09.592Z,95171.75
2023-05-18T14:47:37.908Z,95148.09
2023-05-18T14:50:06.606Z,95160.75
2023-05-18T14:52:34.612Z,95172.56
2023-05-18T14:55:02.623Z,95168.09
2023-05-18T14:57:32.561Z,95178.28
2023-05-18T15:00:01.286Z,95180.44
2023-05-18T15:02:29.576Z,95170.31
2023-05-18T15:04:58.229Z,95174.06
2023-05-18T15:07:26.220Z,95179.84
2023-05-18T15:10:02.259Z,95167.41
2023-05-18T15:12:31.600Z,95152.91
2023-05-18T15:14:59.610Z,95063.66
2023-05-18T15:17:27.719Z,95081.31
2023-05-18T15:19:56.452Z,95140.88
2023-05-18T15:22:24.450Z,95160.41
2023-05-18T15:24:52.556Z,95106.41
2023-05-18T15:27:20.614Z,95153.13
2023-05-18T15:29:50.295Z,95146.91
2023-05-18T15:32:18.314Z,94950.09
2023-05-18T15:34:47.108Z,95027.16
2023-05-18T15:37:15.149Z,95167.00
2023-05-18T15:39:43.083Z,95158.03
2023-05-18T15:42:11.198Z,95162.19
2023-05-18T15:44:39.161Z,95109.66
2023-05-18T15:47:08.530Z,95144.50
2023-05-18T15:49:36.547Z,95175.59
2023-05-18T15:52:04.897Z,95173.63
2023-05-18T15:54:32.967Z,95186.41
2023-05-18T15:57:01.042Z,95143.94
2023-05-18T15:59:28.999Z,95166.84
2023-05-18T16:01:57.007Z,95171.34
2023-05-18T16:04:26.328Z,95176.25
2023-05-18T16:06:54.259Z,95166.38
2023-05-18T16:09:22.189Z,95155.66
2023-05-18T16:11:50.245Z,95146.81
2023-05-18T16:14:18.154Z,95147.69
2023-05-18T16:16:46.276Z,95144.41
2023-05-18T16:19:14.494Z,95163.78
2023-05-18T16:21:44.064Z,95178.09
2023-05-18T16:24:12.030Z,95104.16
2023-05-18T16:26:40.271Z,95171.34
2023-05-18T16:29:08.371Z,95179.97
2023-05-18T16:31:37.233Z,95194.91
2023-05-18T16:34:05.796Z,95199.59
2023-05-18T16:36:33.836Z,95211.53
2023-05-18T16:39:03.316Z,95205.66
2023-05-18T16:41:31.295Z,95177.63
2023-05-18T16:43:59.614Z,95202.81
2023-05-18T16:46:27.652Z,95198.88
2023-05-18T16:48:55.753Z,95194.03
2023-05-18T16:51:24.901Z,95145.16
2023-05-18T16:53:55.647Z,95201.47
2023-05-18T16:56:25.574Z,95194.06
2023-05-18T16:58:54.026Z,95201.47
2023-05-18T17:01:28.242Z,95197.06
2023-05-18T17:03:57.245Z,95213.06
2023-05-18T17:06:25.788Z,95209.16
2023-05-18T17:08:58.205Z,95210.34
2023-05-18T17:11:28.362Z,95156.59
2023-05-18T17:13:57.838Z,95191.25
2023-05-18T17:16:26.876Z,95168.50
2023-05-18T17:18:56.137Z,95080.03
2023-05-18T17:21:26.785Z,95216.69
2023-05-18T17:23:54.791Z,95184.47
2023-05-18T17:26:23.067Z,95218.47
2023-05-18T17:28:53.128Z,95214.28
2023-05-18T17:31:21.097Z,95140.53
2023-05-18T17:33:49.102Z,95198.97
2023-05-18T17:36:18.354Z,95218.25
2023-05-18T17:38:46.928Z,95221.56
2023-05-18T17:41:15.749Z,95227.00
2023-05-18T17:43:44.158Z,95208.00
2023-05-18T17:46:13.635Z,95137.22
2023-05-18T17:48:41.729Z,95233.31
2023-05-18T17:51:09.733Z,95241.75
2023-05-18T17:53:42.053Z,95234.97
2023-05-18T17:56:11.161Z,95245.66
2023-05-18T17:58:39.817Z,95242.94
2023-05-18T18:01:08.862Z,95251.69
2023-05-18T18:03:38.612Z,95243.41
2023-05-18T18:06:06.970Z,95242.81
2023-05-18T18:08:34.942Z,95251.09
2023-05-18T18:11:03.158Z,95256.50
2023-05-18T18:13:31.330Z,95235.41
2023-05-18T18:15:59.284Z,95267.69
2023-05-18T18:18:27.845Z,95267.69
2023-05-18T18:20:57.143Z,95266.78
2023-05-18T18:23:25.186Z,95278.84
2023-05-18T18:25:53.302Z,95287.28
2023-05-18T18:28:21.597Z,95288.94
2023-05-18T18:30:49.727Z,95302.34
2023-05-18T18:33:20.046Z,95267.06
2023-05-18T18:35:48.293Z,95298.72
2023-05-18T18:38:17.616Z,95283.66
2023-05-18T18:40:45.792Z,95297.06
2023-05-18T18:43:13.794Z,95279.44
2023-05-18T18:45:41.713Z,95270.09
2023-05-18T18:48:10.095Z,95290.91
2023-05-18T18:50:38.082Z,95290.59
2023-05-18T18:53:06.109Z,95284.84
2023-05-18T18:55:35.443Z,95280.66
2023-05-18T18:58:03.446Z,95279.75
2023-05-18T19:00:31.676Z,95280.94
2023-05-18T19:02:59.678Z,95274.28
2023-05-18T19:05:28.464Z,95281.81
2023-05-18T19:07:56.381Z,95288.00
2023-05-18T19:10:25.534Z,95277.31
2023-05-18T19:12:55.007Z,95270.38
2023-05-18T19:15:23.404Z,95278.81
2023-05-18T19:17:54.059Z,95302.91
2023-05-18T19:20:23.189Z,95295.97
2023-05-18T19:22:53.278Z,95294.41
2023-05-18T19:25:21.415Z,95274.50
2023-05-18T19:27:49.314Z,95289.56
2023-05-18T19:30:21.245Z,95299.25
2023-05-18T19:32:50.223Z,95304.41
2023-05-18T19:35:19.987Z,95313.75
2023-05-18T19:37:48.293Z,95272.44
2023-05-18T19:40:16.893Z,95298.69
2023-05-18T19:42:44.994Z,95299.28
2023-05-18T19:45:12.968Z,95307.16
2023-05-18T19:47:42.416Z,95310.19
2023-05-18T19:50:10.512Z,95321.03
2023-05-18T19:52:38.458Z,95334.91
2023-05-18T19:55:07.416Z,95345.75
2023-05-18T19:57:36.167Z,95352.66
2023-05-18T20:00:06.071Z,95323.38
2023-05-18T20:02:34.039Z,95347.22
2023-05-18T20:05:04.119Z,95355.97
2023-05-18T20:07:33.448Z,95344.22
2023-05-18T20:10:01.385Z,95356.00
2023-05-18T20:12:29.346Z,95367.47
2023-05-18T20:14:57.311Z,95324.03
2023-05-18T20:17:25.742Z,95371.09
2023-05-18T20:19:53.821Z,95363.84
2023-05-18T20:22:23.303Z,95327.38
2023-05-18T20:24:51.402Z,95370.94
2023-05-18T20:27:19.402Z,95362.91
2023-05-18T20:29:47.636Z,95374.41
2023-05-18T20:32:15.546Z,95355.25
2023-05-18T20:34:44.717Z,95374.41
2023-05-18T20:37:14.273Z,95374.53
2023-05-18T20:39:50.620Z,95350.97
2023-05-18T20:42:22.998Z,95379.22
2023-05-18T20:44:52.748Z,95355.22
2023-05-18T20:47:21.189Z,95349.94
2023-05-18T20:49:49.428Z,95376.31
2023-05-18T20:52:17.308Z,95377.94
2023-05-18T20:54:47.500Z,95319.38
2023-05-18T20:57:15.731Z,95371.81
2023-05-18T20:59:43.825Z,95267.03
2023-05-18T21:02:11.791Z,95349.06
2023-05-18T21:04:39.806Z,95367.50
2023-05-18T21:07:07.810Z,95364.75
2023-05-18T21:09:36.082Z,95365.34
2023-05-18T21:12:06.244Z,95363.84
2023-05-18T21:14:34.242Z,95364.91
2023-05-18T21:17:02.197Z,95361.47
2023-05-18T21:19:30.250Z,95351.94
2023-05-18T21:21:58.473Z,95362.06
2023-05-18T21:24:26.497Z,95352.41
2023-05-18T21:26:54.454Z,95359.78
2023-05-18T21:29:23.767Z,95355.72
2023-05-18T21:31:51.750Z,95221.28
2023-05-18T21:34:19.818Z,95346.22
2023-05-18T21:36:47.874Z,95304.16
2023-05-18T21:39:15.812Z,95355.72
2023-05-18T21:41:44.565Z,95355.84
2023-05-18T21:44:12.684Z,95352.13
2023-05-18T21:46:41.977Z,95359.34
2023-05-18T21:49:10.154Z,95364.47
2023-05-18T21:51:38.153Z,95364.91
2023-05-18T21:54:06.211Z,95370.19
2023-05-18T21:56:34.894Z,95351.22
2023-05-18T21:59:02.878Z,95347.28
2023-05-18T22:01:31.035Z,95322.25
2023-05-18T22:04:00.488Z,95350.72
2023-05-18T22:06:28.530Z,95349.72
2023-05-18T22:08:56.435Z,95361.75
2023-05-18T22:11:24.676Z,95353.00
2023-05-18T22:13:52.759Z,95345.31
2023-05-18T22:16:20.746Z,95276.44
2023-05-18T22:18:48.793Z,95350.59
2023-05-18T22:21:18.196Z,95352.72
2023-05-18T22:23:46.127Z,95305.06
2023-05-18T22:26:14.012Z,95320.75
2023-05-18T22:28:41.993Z,95341.84
2023-05-18T22:31:09.870Z,95350.00
2023-05-18T22:33:38.770Z,95340.94
2023-05-18T22:36:07.393Z,95342.75
2023-05-18T22:38:36.802Z,95336.44
2023-05-18T22:41:04.813Z,95333.88
2023-05-18T22:43:32.759Z,95341.25
2023-05-18T22:46:01.023Z,95329.19
2023-05-18T22:48:29.842Z,95338.53
2023-05-18T22:51:00.796Z,95313.66
2023-05-18T22:53:28.764Z,95315.59
2023-05-18T22:55:58.754Z,95303.25
2023-05-18T22:58:26.659Z,95341.53
2023-05-18T23:00:54.527Z,95328.72
2023-05-18T23:03:22.712Z,95332.47
2023-05-18T23:05:50.814Z,95291.91
2023-05-18T23:08:20.332Z,95249.91
2023-05-18T23:10:52.218Z,95331.88
2023-05-18T23:13:21.559Z,95333.09
2023-05-18T23:15:49.649Z,95333.13
2023-05-18T23:18:18.269Z,95326.19
2023-05-18T23:20:46.283Z,95331.72
2023-05-18T23:23:14.231Z,95320.72
2023-05-18T23:25:42.231Z,95312.59
2023-05-18T23:28:10.332Z,95322.69
2023-05-18T23:30:39.621Z,95317.41
2023-05-18T23:33:08.323Z,95323.44
2023-05-18T23:35:37.432Z,95315.28
2023-05-18T23:38:06.426Z,95325.84
2023-05-18T23:40:34.950Z,95232.56
2023-05-18T23:43:03.324Z,95325.25
2023-05-18T23:45:31.977Z,95318.00
2023-05-18T23:48:03.273Z,95319.22
2023-05-18T23:50:32.124Z,95318.63
2023-05-18T23:53:04.419Z,95326.16
2023-05-18T23:55:36.231Z,95320.47
2023-05-18T23:58:05.732Z,95314.72
